Time;durP1;ratioP1;P1;durP2;ratioP2;P2;SDS_P1;SDS_P2;PMS_P1;PMS_P2;Temp;Humidity;BMP_temperature;BMP_pressure;BME280_temperature;BME280_humidity;BME280_pressure;Samples;Min_cycle;Max_cycle;Signal;HPM_P1;HPM_P2
2020/12/13 00:01:00;;;;;;;10.32;8.68;;;;;;;13.50;53.02;99668.75;5006255;27;98471;-59
2020/12/13 00:03:26;;;;;;;10.80;8.82;;;;;;;13.51;52.95;99673.03;5004310;27;116317;-57
2020/12/13 00:05:52;;;;;;;9.77;8.70;;;;;;;13.51;52.80;99674.94;5002736;27;98031;-59
2020/12/13 00:08:18;;;;;;;9.63;8.52;;;;;;;13.49;53.22;99677.97;4986113;27;98435;-57
2020/12/13 00:10:44;;;;;;;9.43;8.30;;;;;;;13.50;52.91;99681.47;5002180;27;98708;-59
2020/12/13 00:13:11;;;;;;;10.35;8.02;;;;;;;13.48;53.24;99684.50;5004192;27;126178;-58
2020/12/13 00:15:39;;;;;;;10.15;8.23;;;;;;;13.49;53.02;99682.59;5004914;27;97754;-59
2020/12/13 00:18:05;;;;;;;9.95;7.75;;;;;;;13.50;52.91;99684.19;5006409;27;98936;-57
2020/12/13 00:20:31;;;;;;;9.13;7.80;;;;;;;13.48;52.78;99689.91;5024683;27;113960;-59
2020/12/13 00:22:57;;;;;;;9.30;8.30;;;;;;;13.49;53.36;99693.41;5024208;27;126533;-59
2020/12/13 00:25:23;;;;;;;9.65;7.97;;;;;;;13.48;53.07;99697.25;5024621;27;117793;-57
2020/12/13 00:27:49;;;;;;;10.35;8.10;;;;;;;13.50;53.26;99697.72;5006735;27;98180;-59
2020/12/13 00:30:15;;;;;;;9.98;7.85;;;;;;;13.47;53.01;99695.63;5023985;27;128820;-59
2020/12/13 00:32:41;;;;;;;9.05;7.50;;;;;;;13.49;53.04;99693.41;5004744;27;125973;-57
2020/12/13 00:35:07;;;;;;;9.18;7.60;;;;;;;13.46;52.95;99683.19;5024938;27;97895;-57
2020/12/13 00:37:33;;;;;;;9.73;8.30;;;;;;;13.48;53.01;99698.03;5005662;27;119345;-59
2020/12/13 00:39:59;;;;;;;10.10;8.00;;;;;;;13.49;53.15;99698.84;4992946;27;100889;-59
2020/12/13 00:42:25;;;;;;;9.52;8.32;;;;;;;13.49;53.15;99704.25;5003181;27;121837;-58
2020/12/13 00:44:52;;;;;;;8.95;7.65;;;;;;;13.49;53.05;99707.75;4986000;27;101109;-57
2020/12/13 00:47:18;;;;;;;9.85;8.02;;;;;;;13.47;52.97;99712.66;4952819;27;99631;-59
2020/12/13 00:49:44;;;;;;;8.52;7.63;;;;;;;13.46;52.98;99715.69;4961632;27;128851;-57
2020/12/13 00:52:10;;;;;;;8.77;7.63;;;;;;;13.47;53.10;99709.16;4967246;27;124439;-59
2020/12/13 00:54:36;;;;;;;8.90;7.22;;;;;;;13.48;53.25;99713.47;4995807;27;104728;-58
2020/12/13 00:57:02;;;;;;;8.52;7.55;;;;;;;13.48;53.05;99719.69;5003275;27;127678;-59
2020/12/13 00:59:28;;;;;;;9.35;7.75;;;;;;;13.47;53.02;99720.78;4993514;27;128257;-57
2020/12/13 01:01:54;;;;;;;9.25;7.82;;;;;;;13.48;53.10;99718.91;5003559;27;97883;-58
2020/12/13 01:04:20;;;;;;;9.65;7.85;;;;;;;13.46;53.12;99713.78;4995224;27;117128;-58
2020/12/13 01:06:46;;;;;;;9.18;7.65;;;;;;;13.47;53.27;99718.06;5023959;27;98503;-59
2020/12/13 01:09:12;;;;;;;10.32;8.23;;;;;;;13.45;53.04;99723.00;5005174;27;98350;-59
2020/12/13 01:11:38;;;;;;;8.45;7.43;;;;;;;13.45;53.00;99728.41;5004026;27;126652;-59
2020/12/13 01:14:04;;;;;;;10.35;7.90;;;;;;;13.44;53.30;99729.53;5005876;27;115752;-57
2020/12/13 01:16:30;;;;;;;8.90;7.35;;;;;;;13.46;53.44;99735.44;4987785;27;117638;-59
2020/12/13 01:18:59;;;;;;;8.88;7.70;;;;;;;13.47;53.07;99739.72;5024534;27;97925;-59
2020/12/13 01:21:27;;;;;;;9.07;7.47;;;;;;;13.47;53.19;99731.59;5023248;27;98241;-58
2020/12/13 01:23:53;;;;;;;8.77;7.75;;;;;;;13.49;52.97;99734.03;5023909;27;100503;-59
2020/12/13 01:26:20;;;;;;;9.70;7.55;;;;;;;13.47;53.26;99733.53;5024253;27;108981;-57
2020/12/13 01:28:46;;;;;;;9.88;7.90;;;;;;;13.47;53.05;99728.91;5004412;27;115750;-59
2020/12/13 01:31:14;;;;;;;8.82;7.38;;;;;;;13.45;53.27;99728.41;5005809;27;97973;-59
2020/12/13 01:33:40;;;;;;;9.35;7.50;;;;;;;13.44;52.98;99726.81;5010280;27;98047;-57
2020/12/13 01:36:11;;;;;;;8.82;7.80;;;;;;;13.43;53.17;99732.53;5003042;27;106525;-59
2020/12/13 01:38:37;;;;;;;9.18;7.65;;;;;;;13.42;53.15;99739.06;5003601;27;98397;-59
2020/12/13 01:41:03;;;;;;;8.82;7.47;;;;;;;13.41;53.27;99735.56;5003685;27;98358;-59
2020/12/13 01:43:29;;;;;;;9.20;6.93;;;;;;;13.42;53.22;99739.06;5002935;27;116150;-59
2020/12/13 01:45:55;;;;;;;8.13;7.30;;;;;;;13.41;53.33;99748.28;5002483;27;127871;-58
2020/12/13 01:48:21;;;;;;;9.70;7.43;;;;;;;13.41;53.34;99749.09;5002928;27;127736;-58
2020/12/13 01:53:37;;;;;;;8.73;7.28;;;;;;;13.38;53.53;99754.31;4974912;27;97995;-58
2020/12/13 01:56:04;;;;;;;8.07;7.18;;;;;;;13.42;53.27;99755.28;4986170;27;129629;-59
2020/12/13 01:58:36;;;;;;;8.43;6.82;;;;;;;13.38;53.32;99752.38;5003574;27;128199;-57
2020/12/13 02:01:07;;;;;;;9.13;7.68;;;;;;;13.41;53.35;99751.00;5014826;27;97965;-58
2020/12/13 02:03:43;;;;;;;8.15;7.30;;;;;;;13.38;53.45;99751.59;5003938;27;97707;-57
2020/12/13 02:06:22;;;;;;;8.02;7.22;;;;;;;13.37;53.33;99764.31;5019566;27;116264;-59
2020/12/13 02:08:49;;;;;;;8.45;6.80;;;;;;;13.40;53.43;99771.03;5023351;27;99653;-59
2020/12/13 02:11:15;;;;;;;7.75;6.95;;;;;;;13.42;53.33;99774.25;5022213;27;98260;-58
2020/12/13 02:13:41;;;;;;;8.43;6.70;;;;;;;13.44;53.42;99772.84;5024551;27;97815;-59
2020/12/13 02:16:08;;;;;;;8.10;7.28;;;;;;;13.41;53.33;99770.75;5023539;27;98231;-58
2020/12/13 02:18:35;;;;;;;9.25;7.45;;;;;;;13.41;53.07;99769.94;5003759;27;119272;-57
2020/12/13 02:21:01;;;;;;;7.85;6.63;;;;;;;13.42;53.00;99771.53;5023011;27;98657;-57
2020/12/13 02:23:29;;;;;;;8.32;7.20;;;;;;;13.42;53.33;99774.25;5023107;27;97715;-57
2020/12/13 02:25:55;;;;;;;8.52;7.40;;;;;;;13.43;53.15;99768.50;5004217;27;102809;-57
2020/12/13 02:28:21;;;;;;;8.90;6.85;;;;;;;13.46;53.14;99770.63;5019673;27;120222;-58
2020/12/13 02:30:49;;;;;;;8.52;7.25;;;;;;;13.46;53.18;99777.94;5006857;27;127032;-58
2020/12/13 02:33:15;;;;;;;8.63;7.30;;;;;;;13.44;53.23;99775.56;5006554;27;97854;-59
2020/12/13 02:35:41;;;;;;;9.45;7.90;;;;;;;13.45;53.31;99779.06;4996613;27;129822;-57
2020/12/13 02:38:07;;;;;;;9.55;7.22;;;;;;;13.45;53.52;99779.06;5025733;27;128552;-59
2020/12/13 02:40:33;;;;;;;9.70;8.00;;;;;;;13.45;53.32;99779.06;5026000;27;98411;-58
2020/12/13 02:42:59;;;;;;;8.88;7.97;;;;;;;13.44;53.12;99778.25;5026214;27;116334;-57
2020/12/13 02:45:25;;;;;;;9.57;7.97;;;;;;;13.44;53.28;99780.97;5026062;27;98279;-57
2020/12/13 02:47:51;;;;;;;9.40;8.02;;;;;;;13.45;53.43;99789.88;5025321;27;123781;-57
2020/12/13 02:50:17;;;;;;;9.38;7.72;;;;;;;13.46;52.84;99778.75;5026200;27;119549;-57
2020/12/13 02:52:43;;;;;;;8.85;7.95;;;;;;;13.47;53.24;99783.03;5025382;27;102121;-58
2020/12/13 02:55:09;;;;;;;9.88;8.07;;;;;;;13.47;53.11;99776.84;5025588;27;127911;-60
2020/12/13 02:57:35;;;;;;;8.90;7.80;;;;;;;13.46;53.03;99784.16;4975026;27;127719;-59
2020/12/13 03:00:01;;;;;;;9.05;8.10;;;;;;;13.48;53.11;99784.69;5004844;27;112379;-58
2020/12/13 03:02:27;;;;;;;8.73;7.68;;;;;;;13.49;53.10;99782.75;4987730;27;100920;-57
2020/12/13 03:04:53;;;;;;;9.43;8.10;;;;;;;13.47;53.04;99793.88;5012322;27;126700;-57
2020/12/13 03:07:19;;;;;;;9.18;7.90;;;;;;;13.48;53.50;99795.50;5025631;27;127952;-57
2020/12/13 03:09:45;;;;;;;9.90;8.20;;;;;;;13.48;53.31;99795.50;5005741;27;127287;-58
2020/12/13 03:12:11;;;;;;;9.32;7.90;;;;;;;13.48;53.07;99800.13;5026079;27;117929;-57
2020/12/13 03:14:37;;;;;;;9.15;8.15;;;;;;;13.50;53.34;99800.59;5006489;27;127111;-60
2020/12/13 03:17:03;;;;;;;10.10;8.55;;;;;;;13.50;53.23;99797.91;5025324;27;125767;-59
2020/12/13 03:19:29;;;;;;;9.88;8.30;;;;;;;13.50;53.11;99803.31;5026519;27;98078;-57
2020/12/13 03:21:55;;;;;;;11.13;8.75;;;;;;;13.50;53.61;99801.41;5007382;27;110094;-57
2020/12/13 03:24:21;;;;;;;9.50;8.38;;;;;;;13.51;53.35;99804.91;5005859;27;101345;-59
2020/12/13 03:26:47;;;;;;;9.65;8.48;;;;;;;13.51;53.17;99813.81;5024555;27;118593;-59
2020/12/13 03:29:13;;;;;;;9.68;8.68;;;;;;;13.53;53.20;99812.75;5024572;27;127015;-57
2020/12/13 03:31:40;;;;;;;8.95;8.05;;;;;;;13.51;53.24;99818.44;5024705;27;118322;-57
2020/12/13 03:34:06;;;;;;;8.85;7.95;;;;;;;13.54;53.13;99822.47;5006910;27;98733;-57
2020/12/13 03:36:32;;;;;;;8.95;8.05;;;;;;;13.54;52.91;99817.03;5025453;27;98984;-57
2020/12/13 03:38:58;;;;;;;10.38;8.75;;;;;;;13.56;53.07;99820.25;5025937;27;98003;-59
2020/12/13 03:41:24;;;;;;;10.00;8.60;;;;;;;13.55;53.04;99826.75;5025203;27;97719;-59
2020/12/13 03:43:50;;;;;;;9.10;8.10;;;;;;;13.53;53.05;99824.38;5024689;27;128184;-59
2020/12/13 03:46:16;;;;;;;9.05;8.05;;;;;;;13.55;53.34;99832.19;5023620;27;126805;-57
2020/12/13 03:48:42;;;;;;;10.40;8.35;;;;;;;13.56;53.10;99833.78;5004087;27;106290;-59
2020/12/13 03:51:08;;;;;;;9.77;8.50;;;;;;;13.55;53.11;99832.19;5024975;27;117640;-58
2020/12/13 03:53:34;;;;;;;11.40;8.85;;;;;;;13.56;53.34;99839.19;5024471;27;125821;-58
2020/12/13 03:56:00;;;;;;;11.48;8.98;;;;;;;13.56;53.07;99840.03;5006792;27;128650;-57
2020/12/13 03:58:26;;;;;;;9.73;8.73;;;;;;;13.56;53.41;99845.44;5004484;27;127697;-58
2020/12/13 04:00:52;;;;;;;10.07;8.32;;;;;;;13.57;53.05;99843.53;5022220;27;117756;-57
2020/12/13 04:03:18;;;;;;;9.80;8.57;;;;;;;13.56;53.18;99844.59;5024277;27;127412;-57
2020/12/13 04:05:44;;;;;;;9.68;8.35;;;;;;;13.55;53.21;99838.41;5024149;27;127945;-57
2020/12/13 04:08:10;;;;;;;9.48;8.45;;;;;;;13.56;53.29;99834.59;5024398;27;126499;-59
2020/12/13 04:10:36;;;;;;;10.00;8.35;;;;;;;13.57;52.97;99840.81;5024463;27;118772;-59
2020/12/13 04:13:02;;;;;;;9.25;8.18;;;;;;;13.59;53.18;99844.00;5023568;27;128175;-57
2020/12/13 04:15:28;;;;;;;9.80;8.25;;;;;;;13.56;53.07;99840.03;5015244;27;128007;-57
2020/12/13 04:17:54;;;;;;;10.27;8.55;;;;;;;13.57;53.34;99836.19;5005142;27;98052;-57
2020/12/13 04:20:20;;;;;;;9.95;8.70;;;;;;;13.58;53.17;99837.00;5004171;27;117870;-59
2020/12/13 04:22:47;;;;;;;8.95;8.05;;;;;;;13.57;53.21;99841.63;4985896;27;107196;-57
2020/12/13 04:25:13;;;;;;;9.48;8.55;;;;;;;13.59;53.19;99844.00;4984036;27;128344;-58
2020/12/13 04:27:39;;;;;;;9.32;8.23;;;;;;;13.58;53.17;99845.91;5004058;27;118252;-57
2020/12/13 04:30:06;;;;;;;10.43;8.43;;;;;;;13.59;53.19;99850.22;5005173;27;97736;-58
2020/12/13 04:32:32;;;;;;;10.15;8.18;;;;;;;13.60;53.23;99856.47;4989311;27;99361;-57
2020/12/13 04:34:58;;;;;;;10.07;8.13;;;;;;;13.58;53.13;99853.25;5003016;27;124307;-58
2020/12/13 04:37:24;;;;;;;10.00;8.52;;;;;;;13.59;53.34;99858.34;5003612;27;98040;-58
2020/12/13 04:39:52;;;;;;;9.55;8.55;;;;;;;13.56;53.44;99858.97;5004803;27;97771;-59
2020/12/13 04:42:18;;;;;;;9.80;8.05;;;;;;;13.57;53.30;99860.56;4999183;27;99808;-58
2020/12/13 04:44:45;;;;;;;9.38;8.38;;;;;;;13.57;53.50;99849.75;4983879;27;98682;-57
2020/12/13 04:47:11;;;;;;;9.65;8.35;;;;;;;13.59;53.54;99865.66;4969653;27;98001;-58
2020/12/13 04:49:37;;;;;;;10.65;8.43;;;;;;;13.61;53.15;99866.19;4985067;27;117778;-57
2020/12/13 04:52:04;;;;;;;10.50;8.40;;;;;;;13.61;53.24;99860.78;5018806;27;98095;-57
2020/12/13 04:54:30;;;;;;;9.93;8.48;;;;;;;13.60;53.14;99865.38;5003605;27;98674;-58
2020/12/13 04:56:58;;;;;;;10.48;8.45;;;;;;;13.58;53.26;99864.88;5003612;27;127654;-57
2020/12/13 04:59:25;;;;;;;9.65;8.60;;;;;;;13.59;53.06;99865.66;5003780;27;97792;-57
2020/12/13 05:01:53;;;;;;;9.82;8.40;;;;;;;13.59;53.30;99866.47;5003670;27;98508;-57
2020/12/13 05:04:19;;;;;;;9.70;8.32;;;;;;;13.59;53.57;99873.78;5002840;27;98373;-58
2020/12/13 05:06:45;;;;;;;10.18;8.48;;;;;;;13.61;53.49;99875.09;5003042;27;127488;-59
2020/12/13 05:09:13;;;;;;;9.13;8.23;;;;;;;13.60;53.08;99884.34;4987896;27;98051;-57
2020/12/13 05:11:47;;;;;;;10.50;8.60;;;;;;;13.58;53.36;99877.63;5003666;27;99310;-57
2020/12/13 05:14:13;;;;;;;9.70;8.45;;;;;;;13.60;53.50;99884.34;5024077;27;98315;-58
2020/12/13 05:16:39;;;;;;;9.30;8.27;;;;;;;13.60;53.22;99892.47;5024197;27;98127;-58
2020/12/13 05:19:06;;;;;;;10.57;8.60;;;;;;;13.61;53.13;99896.78;5023453;27;116582;-57
2020/12/13 05:21:33;;;;;;;11.13;8.70;;;;;;;13.62;53.38;99894.88;5003641;27;118832;-58
2020/12/13 05:24:01;;;;;;;11.00;8.50;;;;;;;13.66;53.38;99898.56;5003995;27;99034;-57
2020/12/13 05:26:27;;;;;;;9.35;8.20;;;;;;;13.66;53.09;99891.25;5000289;27;116510;-57
2020/12/13 05:28:54;;;;;;;9.80;8.43;;;;;;;13.71;53.01;99896.56;4984598;27;118890;-58
2020/12/13 05:31:24;;;;;;;10.07;8.68;;;;;;;13.75;53.05;99900.28;5003563;27;105831;-57
2020/12/13 05:33:53;;;;;;;11.02;9.00;;;;;;;13.80;53.00;99906.72;5002081;27;98273;-59
2020/12/13 05:36:19;;;;;;;11.38;9.18;;;;;;;13.82;53.04;99904.50;5003376;27;98472;-57
2020/12/13 05:38:46;;;;;;;10.13;9.07;;;;;;;13.80;52.73;99901.28;5019712;27;97953;-57
2020/12/13 05:41:15;;;;;;;10.25;8.85;;;;;;;13.82;52.91;99904.50;5023674;27;98902;-57
2020/12/13 05:43:46;;;;;;;9.95;8.73;;;;;;;13.83;52.59;99914.22;5023840;27;98179;-57
2020/12/13 05:46:33;;;;;;;9.48;8.40;;;;;;;13.83;53.08;99912.31;5022091;27;97926;-57
2020/12/13 05:49:12;;;;;;;9.55;8.65;;;;;;;13.84;52.72;99913.94;5014323;27;97791;-59
2020/12/13 05:51:41;;;;;;;10.63;8.98;;;;;;;13.84;52.87;99913.94;5003687;27;98162;-57
2020/12/13 05:54:25;;;;;;;9.70;8.70;;;;;;;13.84;52.69;99913.94;5001931;27;98477;-57
2020/12/13 05:56:59;;;;;;;10.00;8.90;;;;;;;13.82;53.02;99907.19;5003185;27;98830;-59
2020/12/13 05:59:27;;;;;;;10.55;8.60;;;;;;;13.84;52.99;99915.84;5001312;27;97789;-59
2020/12/13 06:01:55;;;;;;;10.65;9.13;;;;;;;13.84;53.02;99919.34;5001945;27;113375;-58
2020/12/13 06:04:31;;;;;;;11.30;9.15;;;;;;;13.83;52.98;99920.44;5005901;27;99010;-57
2020/12/13 06:07:02;;;;;;;9.40;8.32;;;;;;;13.85;53.08;99915.53;5010752;27;97963;-57
2020/12/13 06:09:50;;;;;;;9.63;8.63;;;;;;;13.84;52.83;99916.63;5001681;27;98150;-58
2020/12/13 06:12:16;;;;;;;9.13;8.15;;;;;;;13.84;53.25;99913.94;5020071;27;128222;-59
2020/12/13 06:14:43;;;;;;;8.95;7.97;;;;;;;13.83;53.32;99916.91;5020576;27;127237;-59
2020/12/13 06:17:09;;;;;;;9.10;8.18;;;;;;;13.81;52.99;99916.44;5023237;27;97828;-58
2020/12/13 06:19:37;;;;;;;9.30;7.88;;;;;;;13.79;53.10;99919.44;5023772;27;97664;-57
2020/12/13 06:22:05;;;;;;;8.52;7.63;;;;;;;13.79;53.33;99922.13;5021510;27;98466;-57
2020/12/13 06:24:31;;;;;;;9.13;8.18;;;;;;;13.78;53.05;99925.16;5020103;27;126037;-57
2020/12/13 06:26:57;;;;;;;9.75;7.93;;;;;;;13.80;53.31;99922.97;5020819;27;120902;-59
2020/12/13 06:29:24;;;;;;;9.13;8.15;;;;;;;13.80;53.25;99933.78;5024064;27;97944;-58
2020/12/13 06:31:52;;;;;;;9.20;7.70;;;;;;;13.79;53.34;99932.97;5022741;27;111158;-57
2020/12/13 06:34:18;;;;;;;8.70;7.80;;;;;;;13.80;53.52;99941.94;5003715;27;98707;-58
2020/12/13 06:36:44;;;;;;;9.52;8.07;;;;;;;13.79;53.32;99943.81;5000425;27;109584;-60
2020/12/13 06:39:17;;;;;;;9.32;8.07;;;;;;;13.83;53.22;99941.31;5001322;27;97930;-57
2020/12/13 06:41:48;;;;;;;9.32;7.93;;;;;;;13.79;53.29;99951.94;5003373;27;98352;-59
2020/12/13 06:44:14;;;;;;;10.40;8.25;;;;;;;13.80;53.57;99950.84;5003710;27;98510;-57
2020/12/13 06:46:45;;;;;;;9.77;8.00;;;;;;;13.77;53.55;99950.66;5002259;27;98024;-57
2020/12/13 06:49:13;;;;;;;8.88;7.97;;;;;;;13.80;53.28;99958.97;5002568;27;106771;-57
2020/12/13 06:51:41;;;;;;;9.07;7.50;;;;;;;13.81;53.25;99959.78;5000856;27;105465;-58
2020/12/13 06:54:12;;;;;;;9.85;7.75;;;;;;;13.84;53.42;99959.19;5002706;27;98952;-57
2020/12/13 06:56:39;;;;;;;9.32;7.88;;;;;;;13.82;53.42;99962.16;5000355;27;97982;-58
2020/12/13 06:59:07;;;;;;;8.90;7.97;;;;;;;13.84;53.30;99967.31;5002921;27;97746;-58
2020/12/13 07:01:41;;;;;;;9.35;7.88;;;;;;;13.83;53.33;99973.81;5002641;27;97938;-59
2020/12/13 07:04:31;;;;;;;8.55;7.65;;;;;;;13.81;53.25;99976.81;5000719;27;98811;-58
2020/12/13 07:07:06;;;;;;;9.70;8.32;;;;;;;13.84;53.54;99978.16;5012684;27;98951;-57
2020/12/13 07:09:33;;;;;;;9.40;7.80;;;;;;;13.83;53.51;99985.44;5020144;27;97682;-57
2020/12/13 07:12:00;;;;;;;9.98;8.45;;;;;;;13.84;53.48;99987.06;5019318;27;99308;-57
2020/12/13 07:14:29;;;;;;;8.95;8.05;;;;;;;13.85;53.35;99998.69;5018806;27;98139;-58
2020/12/13 07:17:04;;;;;;;9.07;7.97;;;;;;;13.85;53.26;99988.66;5014417;27;98464;-59
2020/12/13 07:19:40;;;;;;;9.20;8.15;;;;;;;13.85;53.32;99998.69;4986953;27;100337;-58
2020/12/13 07:22:11;;;;;;;9.00;7.45;;;;;;;13.89;53.61;100008.63;5003295;27;98537;-59
2020/12/13 07:24:37;;;;;;;9.32;8.00;;;;;;;13.90;53.37;100004.00;5003015;27;98928;-59
2020/12/13 07:27:04;;;;;;;8.82;7.90;;;;;;;13.91;53.30;100009.16;5001383;27;98443;-58
2020/12/13 07:29:33;;;;;;;10.02;7.60;;;;;;;13.90;53.23;100010.22;5003798;27;98036;-59
2020/12/13 07:32:00;;;;;;;9.02;8.02;;;;;;;13.90;53.29;100012.94;5012083;27;98711;-58
2020/12/13 07:34:26;;;;;;;8.82;7.22;;;;;;;13.91;53.48;100020.00;5023535;27;99873;-59
2020/12/13 07:36:52;;;;;;;8.63;7.72;;;;;;;13.93;53.54;100015.06;5023069;27;98226;-58
2020/12/13 07:39:18;;;;;;;9.13;7.40;;;;;;;13.92;53.65;100010.75;5021111;27;103076;-58
2020/12/13 07:41:47;;;;;;;9.35;7.50;;;;;;;13.94;53.59;100011.25;5020457;27;127768;-57
2020/12/13 07:44:17;;;;;;;8.88;7.72;;;;;;;13.98;53.79;100019.56;5005335;27;99113;-59
2020/12/13 07:46:43;;;;;;;9.02;8.13;;;;;;;13.99;53.69;100015.78;5022773;27;116342;-59
2020/12/13 07:49:20;;;;;;;8.77;7.63;;;;;;;13.95;53.83;100026.41;5023443;27;97938;-57
2020/12/13 07:51:51;;;;;;;8.75;7.38;;;;;;;13.98;53.52;100031.22;5013889;27;98584;-60
2020/12/13 07:54:29;;;;;;;8.43;7.53;;;;;;;14.02;53.88;100036.03;5002559;27;103881;-59
2020/12/13 07:56:57;;;;;;;7.90;7.10;;;;;;;14.01;54.13;100037.94;5002200;27;97867;-57
2020/12/13 07:59:25;;;;;;;9.00;7.75;;;;;;;14.01;53.88;100037.94;5022904;27;98053;-57
2020/12/13 08:01:53;;;;;;;9.10;8.05;;;;;;;14.00;54.06;100042.56;5022344;27;118761;-59
2020/12/13 08:04:43;;;;;;;8.73;7.60;;;;;;;13.97;54.31;100054.00;5005252;27;98541;-57
2020/12/13 08:07:10;;;;;;;8.38;7.28;;;;;;;14.00;54.37;100050.69;5021410;27;98134;-58
2020/12/13 08:09:38;;;;;;;8.57;7.63;;;;;;;14.00;54.24;100045.28;5023103;27;97930;-59
2020/12/13 08:12:11;;;;;;;8.32;7.45;;;;;;;14.00;54.42;100064.25;5010541;27;99152;-58
2020/12/13 08:14:37;;;;;;;9.23;7.88;;;;;;;13.99;54.85;100065.34;5000501;27;98332;-59
2020/12/13 08:17:03;;;;;;;8.82;7.72;;;;;;;14.01;54.73;100067.75;5001643;27;128232;-59
2020/12/13 08:19:38;;;;;;;8.93;7.72;;;;;;;14.02;54.45;100073.97;5000694;27;119455;-58
2020/12/13 08:22:13;;;;;;;9.25;7.55;;;;;;;14.04;54.59;100083.41;5002881;27;98636;-58
2020/12/13 08:24:39;;;;;;;9.40;7.82;;;;;;;14.05;54.83;100085.03;4983998;27;114735;-57
2020/12/13 08:27:05;;;;;;;8.77;7.88;;;;;;;14.04;54.65;100075.28;4978347;27;127571;-59
2020/12/13 08:29:32;;;;;;;8.00;7.18;;;;;;;14.06;55.08;100080.41;4983345;27;116044;-57
2020/12/13 08:31:58;;;;;;;8.98;8.00;;;;;;;14.06;54.95;100083.91;5012295;27;117631;-57
2020/12/13 08:34:27;;;;;;;8.20;7.30;;;;;;;14.09;54.97;100090.66;5021686;27;119759;-59
2020/12/13 08:36:55;;;;;;;9.05;8.15;;;;;;;14.09;54.74;100086.03;5023024;27;98196;-57
2020/12/13 08:39:29;;;;;;;9.55;8.13;;;;;;;14.07;55.06;100085.53;5022550;27;98083;-59
2020/12/13 08:41:56;;;;;;;10.30;8.70;;;;;;;14.09;54.98;100090.66;5021780;27;98466;-57
2020/12/13 08:44:40;;;;;;;9.45;7.78;;;;;;;14.09;55.27;100091.44;5021666;27;98595;-58
2020/12/13 08:47:08;;;;;;;9.90;8.60;;;;;;;14.15;54.76;100094.88;5001805;27;98298;-57
2020/12/13 08:49:39;;;;;;;9.60;8.55;;;;;;;14.14;55.12;100098.66;5001823;27;97964;-58
2020/12/13 08:52:23;;;;;;;9.30;8.30;;;;;;;14.14;55.03;100101.38;5013594;27;98002;-57
2020/12/13 08:54:56;;;;;;;9.93;7.97;;;;;;;14.22;55.13;100101.47;5020815;27;118595;-58
2020/12/13 08:57:33;;;;;;;8.77;7.85;;;;;;;14.24;55.16;100112.84;5022606;27;97883;-58
2020/12/13 09:00:19;;;;;;;9.70;8.70;;;;;;;14.24;54.92;100109.34;5022388;27;97895;-57
2020/12/13 09:03:02;;;;;;;10.63;9.52;;;;;;;14.25;55.38;100110.94;5020103;27;127896;-59
2020/12/13 09:05:30;;;;;;;10.23;8.55;;;;;;;14.31;55.21;100112.47;5009559;27;98675;-59
2020/12/13 09:07:56;;;;;;;10.68;9.00;;;;;;;14.34;55.08;100114.53;4999874;27;98065;-57
2020/12/13 09:10:23;;;;;;;10.25;8.82;;;;;;;14.35;55.24;100113.47;5001174;27;98081;-59
2020/12/13 09:12:49;;;;;;;9.55;8.55;;;;;;;14.38;55.36;100120.19;5019408;27;99255;-57
2020/12/13 09:15:17;;;;;;;10.43;8.25;;;;;;;14.38;55.75;100123.72;5020473;27;129258;-57
2020/12/13 09:18:02;;;;;;;8.73;7.80;;;;;;;14.35;55.95;100126.22;5021396;27;98250;-59
2020/12/13 09:20:33;;;;;;;10.55;8.38;;;;;;;14.39;55.56;100130.75;5020030;27;98130;-58
2020/12/13 09:23:07;;;;;;;9.05;8.02;;;;;;;14.39;55.71;100135.38;5021662;27;98628;-58
2020/12/13 09:25:43;;;;;;;9.35;8.18;;;;;;;14.41;55.74;100135.84;5020082;27;98574;-57
2020/12/13 09:28:10;;;;;;;9.25;8.18;;;;;;;14.42;56.24;100138.28;4999625;27;98228;-58
2020/12/13 09:30:37;;;;;;;9.75;8.52;;;;;;;14.43;56.06;100137.16;5016294;27;97866;-57
2020/12/13 09:33:03;;;;;;;9.10;8.02;;;;;;;14.45;55.99;100143.06;4999588;27;98375;-60
2020/12/13 09:35:30;;;;;;;9.57;8.38;;;;;;;14.45;56.08;100132.22;4998807;27;101749;-58
2020/12/13 09:38:01;;;;;;;9.07;7.93;;;;;;;14.46;56.27;100130.31;4981875;27;97857;-58
2020/12/13 09:40:27;;;;;;;9.07;8.07;;;;;;;14.47;56.21;100131.94;5001380;27;98109;-57
2020/12/13 09:42:56;;;;;;;8.80;7.90;;;;;;;14.47;56.02;100140.09;5000950;27;98379;-57
2020/12/13 09:45:23;;;;;;;9.35;8.18;;;;;;;14.48;56.36;100144.41;4999260;27;126820;-58
2020/12/13 09:47:49;;;;;;;9.25;7.78;;;;;;;14.49;56.56;100143.31;5020168;27;97909;-57
2020/12/13 09:50:17;;;;;;;8.88;7.95;;;;;;;14.53;56.22;100138.91;5021321;27;98050;-59
2020/12/13 09:52:43;;;;;;;8.98;8.07;;;;;;;14.52;56.51;100140.00;5020954;27;98713;-57
2020/12/13 09:55:09;;;;;;;9.00;8.10;;;;;;;14.53;56.36;100136.19;5019586;27;128359;-57
2020/12/13 09:57:37;;;;;;;9.02;7.90;;;;;;;14.56;56.19;100137.50;5020680;27;127702;-58
2020/12/13 10:00:04;;;;;;;9.27;8.15;;;;;;;14.56;56.24;100129.34;5021124;27;97967;-59
2020/12/13 10:02:30;;;;;;;9.48;8.23;;;;;;;14.55;56.75;100130.47;5008820;27;98053;-59
2020/12/13 10:04:56;;;;;;;9.60;8.60;;;;;;;14.57;56.56;100139.09;5005355;27;127577;-58
2020/12/13 10:10:07;;;;;;;11.85;9.68;;;;;;;14.57;56.35;100136.38;4998065;27;97944;-57
2020/12/13 10:12:33;;;;;;;11.70;9.63;;;;;;;14.59;56.33;100139.63;4999845;27;127445;-57
2020/12/13 10:14:59;;;;;;;11.07;9.60;;;;;;;14.61;56.76;100129.25;4948007;27;128228;-59
2020/12/13 10:17:25;;;;;;;10.98;9.30;;;;;;;14.60;56.61;100133.88;4981065;27;127532;-57
2020/12/13 10:19:51;;;;;;;10.82;8.82;;;;;;;14.64;56.71;100132.16;4998749;27;98097;-59
2020/12/13 10:22:17;;;;;;;10.07;9.02;;;;;;;14.66;56.54;100124.53;4999862;27;128502;-58
2020/12/13 10:24:43;;;;;;;9.25;8.25;;;;;;;14.70;56.62;100133.69;5000148;27;98404;-58
2020/12/13 10:27:09;;;;;;;9.27;8.20;;;;;;;14.72;56.37;100134.16;4999313;27;127258;-59
2020/12/13 10:29:35;;;;;;;9.07;8.18;;;;;;;14.74;56.52;100131.16;5000055;27;118821;-57
2020/12/13 10:32:02;;;;;;;9.27;7.97;;;;;;;14.78;56.33;100140.31;4999625;27;127930;-57
2020/12/13 10:34:28;;;;;;;8.88;7.90;;;;;;;14.80;56.57;100129.13;4983228;27;128093;-57
2020/12/13 10:36:54;;;;;;;9.20;8.18;;;;;;;14.81;56.59;100131.53;4999178;27;125998;-58
2020/12/13 10:39:22;;;;;;;9.13;7.63;;;;;;;14.84;56.79;100132.84;4999972;27;98231;-59
2020/12/13 10:41:51;;;;;;;9.02;7.63;;;;;;;14.83;56.59;100132.06;4999874;27;98932;-59
2020/12/13 10:44:19;;;;;;;8.32;7.45;;;;;;;14.86;56.69;100125.22;5000371;27;97938;-59
2020/12/13 10:46:46;;;;;;;8.32;7.43;;;;;;;14.86;56.92;100133.38;4999959;27;98302;-57
2020/12/13 10:49:12;;;;;;;8.50;7.60;;;;;;;14.87;57.05;100134.97;5012370;27;97947;-57
2020/12/13 10:51:38;;;;;;;9.13;7.05;;;;;;;14.87;57.02;100140.41;5012419;27;128604;-58
2020/12/13 10:54:04;;;;;;;8.77;7.22;;;;;;;14.87;57.21;100133.06;5022446;27;105688;-59
2020/12/13 10:56:30;;;;;;;8.00;6.90;;;;;;;14.87;56.93;100143.91;5023952;27;98262;-58
2020/12/13 10:58:57;;;;;;;7.68;6.88;;;;;;;14.86;57.28;100142.31;5016435;27;108613;-60
2020/12/13 11:01:23;;;;;;;8.10;7.30;;;;;;;14.86;57.30;100142.31;5018240;27;103636;-58
2020/12/13 11:03:49;;;;;;;7.53;6.72;;;;;;;14.87;57.32;100137.69;5020254;27;119420;-57
2020/12/13 11:06:15;;;;;;;7.47;6.78;;;;;;;14.84;57.44;100139.06;5002505;27;118476;-57
2020/12/13 11:08:41;;;;;;;7.97;6.63;;;;;;;14.86;57.21;100147.72;5021232;27;97820;-58
2020/12/13 11:11:07;;;;;;;7.80;6.65;;;;;;;14.86;57.10;100149.66;5002479;27;121502;-59
2020/12/13 11:13:34;;;;;;;8.15;6.70;;;;;;;14.85;56.86;100148.81;5002584;27;99369;-57
2020/12/13 11:16:00;;;;;;;7.60;6.75;;;;;;;14.90;56.98;100142.50;5002056;27;127178;-57
2020/12/13 11:18:30;;;;;;;7.00;6.20;;;;;;;14.89;57.14;100143.59;5003586;27;97867;-57
2020/12/13 11:20:58;;;;;;;7.50;6.53;;;;;;;14.94;56.50;100146.22;5003659;27;97946;-58
2020/12/13 11:23:24;;;;;;;6.90;6.20;;;;;;;14.97;56.51;100148.31;5002723;27;97894;-59
2020/12/13 11:25:50;;;;;;;7.07;6.13;;;;;;;15.01;57.12;100152.00;5002875;27;97645;-57
2020/12/13 11:28:16;;;;;;;7.32;6.43;;;;;;;15.02;56.58;100144.69;5003496;27;97927;-58
2020/12/13 11:30:42;;;;;;;6.53;5.82;;;;;;;15.04;56.65;100150.63;5002961;27;98869;-59
2020/12/13 11:33:08;;;;;;;6.50;5.80;;;;;;;15.05;56.64;100154.94;5008450;27;127999;-57